createdAt,value
2022-10-26T00:01:09.848Z,100059.94
2022-10-26T00:03:38.450Z,100055.06
2022-10-26T00:06:10.156Z,100063.59
2022-10-26T00:08:38.101Z,100067.75
2022-10-26T00:11:06.544Z,100059.91
2022-10-26T00:13:34.651Z,100067.56
2022-10-26T00:16:07.999Z,100054.91
2022-10-26T00:18:35.558Z,100057.09
2022-10-26T00:21:04.914Z,100067.31
2022-10-26T00:23:32.800Z,100062.78
2022-10-26T00:26:00.414Z,100067.37
2022-10-26T00:28:28.273Z,100065.53
2022-10-26T00:30:55.749Z,100068.16
2022-10-26T00:33:23.156Z,100069.31
2022-10-26T00:35:54.302Z,100064.22
2022-10-26T00:38:21.956Z,100066.63
2022-10-26T00:40:49.864Z,100064.22
2022-10-26T00:43:20.525Z,100066.22
2022-10-26T00:45:49.909Z,100056.31
2022-10-26T00:48:23.876Z,100050.81
2022-10-26T00:50:52.138Z,100052.72
2022-10-26T00:53:20.115Z,100053.16
2022-10-26T00:55:50.003Z,100056.84
2022-10-26T00:58:18.147Z,100056.59
2022-10-26T01:00:45.996Z,100056.12
2022-10-26T01:03:13.511Z,100046.44
2022-10-26T01:05:42.442Z,100055.31
2022-10-26T01:08:10.587Z,100051.50
2022-10-26T01:10:39.065Z,100049.69
2022-10-26T01:13:06.597Z,100054.28
2022-10-26T01:15:50.255Z,100052.59
2022-10-26T01:18:35.530Z,100049.41
2022-10-26T01:21:24.338Z,100047.25
2022-10-26T01:24:11.297Z,100055.06
2022-10-26T01:26:57.811Z,100061.47
2022-10-26T01:29:59.564Z,100048.62
2022-10-26T01:32:32.169Z,100052.44
2022-10-26T01:35:11.661Z,100048.53
2022-10-26T01:37:46.020Z,100049.09
2022-10-26T01:40:21.840Z,100050.81
2022-10-26T01:42:54.791Z,100053.13
2022-10-26T01:45:22.477Z,100046.00
2022-10-26T01:47:51.612Z,100044.50
2022-10-26T01:50:19.940Z,100046.72
2022-10-26T01:52:50.838Z,100045.84
2022-10-26T01:55:43.554Z,100040.97
2022-10-26T01:58:36.005Z,100041.47
2022-10-26T02:01:30.114Z,100034.91
2022-10-26T02:04:11.200Z,100035.56
2022-10-26T02:06:49.260Z,100027.78
2022-10-26T02:09:32.528Z,100037.16
2022-10-26T02:12:03.496Z,100032.34
2022-10-26T02:14:52.168Z,100036.28
2022-10-26T02:17:32.458Z,100028.25
2022-10-26T02:20:04.377Z,100029.78
2022-10-26T02:22:44.577Z,100033.63
2022-10-26T02:25:17.976Z,100026.19
2022-10-26T02:27:48.244Z,100037.16
2022-10-26T02:30:16.510Z,100033.00
2022-10-26T02:32:48.803Z,100029.91
2022-10-26T02:35:17.615Z,100027.75
2022-10-26T02:37:47.041Z,100034.75
2022-10-26T02:40:18.553Z,100041.72
2022-10-26T02:42:46.964Z,100037.06
2022-10-26T02:45:19.209Z,100041.34
2022-10-26T02:47:47.426Z,100038.72
2022-10-26T02:50:15.418Z,100044.41
2022-10-26T02:52:52.469Z,100052.56
2022-10-26T02:55:25.989Z,100052.19
2022-10-26T02:58:00.771Z,100052.50
2022-10-26T03:00:29.715Z,100056.66
2022-10-26T03:02:58.952Z,100051.13
2022-10-26T03:05:28.088Z,100054.16
2022-10-26T03:07:56.349Z,100056.72
2022-10-26T03:10:23.980Z,100062.53
2022-10-26T03:12:52.367Z,100061.97
2022-10-26T03:15:20.368Z,100054.66
2022-10-26T03:17:48.139Z,100049.22
2022-10-26T03:20:16.163Z,100060.09
2022-10-26T03:22:43.896Z,100065.91
2022-10-26T03:25:11.382Z,100070.66
2022-10-26T03:27:39.051Z,100066.12
2022-10-26T03:30:07.407Z,100066.84
2022-10-26T03:32:34.864Z,100071.25
2022-10-26T03:35:02.305Z,100075.81
2022-10-26T03:37:30.047Z,100074.78
2022-10-26T03:39:57.467Z,100076.41
2022-10-26T03:42:24.865Z,100075.56
2022-10-26T03:44:52.565Z,100078.66
2022-10-26T03:47:19.978Z,100078.34
2022-10-26T03:49:47.369Z,100074.28
2022-10-26T03:52:15.077Z,100073.22
2022-10-26T03:54:42.546Z,100074.81
2022-10-26T03:57:09.980Z,100082.38
2022-10-26T03:59:37.681Z,100076.41
2022-10-26T04:02:05.146Z,100085.22
2022-10-26T04:04:32.907Z,100086.06
2022-10-26T04:07:00.423Z,100091.44
2022-10-26T04:09:27.848Z,100090.91
2022-10-26T04:11:55.615Z,100084.19
2022-10-26T04:14:23.082Z,100083.25
2022-10-26T04:16:50.464Z,100088.37
2022-10-26T04:19:18.161Z,100083.94
2022-10-26T04:21:45.576Z,100077.47
2022-10-26T04:24:13.089Z,100079.22
2022-10-26T04:26:40.777Z,100079.53
2022-10-26T04:29:09.236Z,100088.97
2022-10-26T04:31:36.675Z,100081.47
2022-10-26T04:34:04.475Z,100074.91
2022-10-26T04:36:31.917Z,100077.91
2022-10-26T04:38:59.373Z,100070.66
2022-10-26T04:41:27.210Z,100071.25
2022-10-26T04:43:54.708Z,100074.19
2022-10-26T04:46:22.090Z,100066.84
2022-10-26T04:48:49.810Z,100078.03
2022-10-26T04:51:17.429Z,100075.69
2022-10-26T04:53:44.840Z,100078.66
2022-10-26T04:56:12.583Z,100071.75
2022-10-26T04:58:40.032Z,100078.81
2022-10-26T05:01:07.512Z,100074.75
2022-10-26T05:03:35.267Z,100070.31
2022-10-26T05:06:02.707Z,100075.34
2022-10-26T05:08:30.133Z,100067.63
2022-10-26T05:10:57.880Z,100065.44
2022-10-26T05:15:57.929Z,100062.53
2022-10-26T05:18:26.356Z,100072.78
2022-10-26T05:20:53.980Z,100071.97
2022-10-26T05:23:22.400Z,100087.56
2022-10-26T05:25:49.884Z,100086.47
2022-10-26T05:28:17.610Z,100094.00
2022-10-26T05:30:46.391Z,100096.19
2022-10-26T05:33:14.746Z,100096.12
2022-10-26T05:35:42.213Z,100094.00
2022-10-26T05:38:11.377Z,100094.78
2022-10-26T05:40:38.888Z,100099.47
2022-10-26T05:43:06.365Z,100104.47
2022-10-26T05:45:34.106Z,100111.22
2022-10-26T05:48:02.793Z,100099.94
2022-10-26T05:50:30.794Z,100105.28
2022-10-26T05:52:58.499Z,100108.06
2022-10-26T05:55:26.246Z,100110.97
2022-10-26T05:57:53.861Z,100110.88
2022-10-26T06:00:23.783Z,100111.19
2022-10-26T06:03:06.809Z,100112.91
2022-10-26T06:05:55.061Z,100115.59
2022-10-26T06:08:24.239Z,100119.56
2022-10-26T06:10:52.033Z,100120.31
2022-10-26T06:13:19.717Z,100121.50
2022-10-26T06:16:06.059Z,100126.19
2022-10-26T06:18:58.242Z,100130.78
2022-10-26T06:21:38.702Z,100138.31
2022-10-26T06:24:14.606Z,100130.81
2022-10-26T06:27:05.363Z,100139.31
2022-10-26T06:29:46.224Z,100143.62
2022-10-26T06:32:14.027Z,100145.31
2022-10-26T06:34:46.196Z,100151.63
2022-10-26T06:37:14.084Z,100147.50
2022-10-26T06:39:48.863Z,100145.63
2022-10-26T06:42:20.586Z,100147.94
2022-10-26T06:44:48.649Z,100145.25
2022-10-26T06:47:27.060Z,100147.06
2022-10-26T06:50:03.008Z,100149.91
2022-10-26T06:52:48.991Z,100144.78
2022-10-26T06:55:17.115Z,100158.19
2022-10-26T06:57:45.003Z,100149.78
2022-10-26T07:00:21.722Z,100153.34
2022-10-26T07:02:50.473Z,100152.66
2022-10-26T07:05:18.105Z,100152.66
2022-10-26T07:07:47.098Z,100161.94
2022-10-26T07:10:15.824Z,100152.81
2022-10-26T07:12:43.225Z,100154.25
2022-10-26T07:15:10.886Z,100156.66
2022-10-26T07:17:49.462Z,100156.22
2022-10-26T07:20:19.447Z,100159.78
2022-10-26T07:22:56.719Z,100158.50
2022-10-26T07:25:25.869Z,100156.81
2022-10-26T07:27:58.220Z,100151.25
2022-10-26T07:30:27.004Z,100166.59
2022-10-26T07:33:06.389Z,100165.47
2022-10-26T07:35:34.339Z,100170.41
2022-10-26T07:38:02.481Z,100168.56
2022-10-26T07:40:30.225Z,100167.34
2022-10-26T07:42:58.878Z,100166.75
2022-10-26T07:45:27.999Z,100168.59
2022-10-26T07:47:55.566Z,100170.97
2022-10-26T07:50:23.625Z,100162.59
2022-10-26T07:52:51.783Z,100161.34
2022-10-26T07:55:20.205Z,100162.78
2022-10-26T07:57:50.970Z,100169.03
2022-10-26T08:00:22.430Z,100162.78
2022-10-26T08:02:50.213Z,100154.22
2022-10-26T08:05:18.096Z,100167.72
2022-10-26T08:07:45.999Z,100169.28
2022-10-26T08:10:14.679Z,100158.13
2022-10-26T08:12:43.322Z,100168.97
2022-10-26T08:15:11.283Z,100168.72
2022-10-26T08:17:39.102Z,100170.31
2022-10-26T08:20:07.095Z,100172.44
2022-10-26T08:22:34.537Z,100177.66
2022-10-26T08:25:02.242Z,100184.34
2022-10-26T08:27:29.642Z,100167.34
2022-10-26T08:29:57.100Z,100173.41
2022-10-26T08:32:24.798Z,100171.84
2022-10-26T08:34:52.456Z,100162.22
2022-10-26T08:37:19.918Z,100167.16
2022-10-26T08:39:49.269Z,100170.69
2022-10-26T08:42:24.776Z,100177.50
2022-10-26T08:44:58.584Z,100176.16
2022-10-26T08:47:30.644Z,100180.59
2022-10-26T08:50:00.274Z,100185.97
2022-10-26T08:52:40.710Z,100197.00
2022-10-26T08:55:14.657Z,100201.91
2022-10-26T08:57:42.566Z,100197.31
2022-10-26T09:00:17.716Z,100202.97
2022-10-26T09:02:45.247Z,100192.28
2022-10-26T09:05:36.048Z,100208.88
2022-10-26T09:08:10.199Z,100200.63
2022-10-26T09:11:07.543Z,100191.44
2022-10-26T09:14:02.632Z,100196.34
2022-10-26T09:16:53.250Z,100196.44
2022-10-26T09:19:47.855Z,100195.38
2022-10-26T09:22:24.625Z,100198.28
2022-10-26T09:24:55.087Z,100196.56
2022-10-26T09:27:41.385Z,100206.72
2022-10-26T09:30:17.691Z,100215.16
2022-10-26T09:32:50.969Z,100216.97
2022-10-26T09:35:23.853Z,100213.09
2022-10-26T09:38:11.509Z,100220.63
2022-10-26T09:40:56.423Z,100209.13
2022-10-26T09:43:37.050Z,100219.47
2022-10-26T09:46:04.633Z,100215.47
2022-10-26T09:48:46.710Z,100211.28
2022-10-26T09:51:16.610Z,100219.03
2022-10-26T09:53:44.393Z,100222.75
2022-10-26T09:56:15.501Z,100225.16
2022-10-26T09:58:48.744Z,100226.50
2022-10-26T10:01:36.897Z,100224.38
2022-10-26T10:04:13.531Z,100229.75
2022-10-26T10:06:41.298Z,100232.84
2022-10-26T10:09:12.684Z,100222.94
2022-10-26T10:12:02.568Z,100231.72
2022-10-26T10:14:36.114Z,100226.44
2022-10-26T10:17:20.098Z,100227.59
2022-10-26T10:19:47.823Z,100232.97
2022-10-26T10:22:15.195Z,100223.72
2022-10-26T10:24:43.921Z,100235.94
2022-10-26T10:27:17.462Z,100232.81
2022-10-26T10:29:47.899Z,100224.16
2022-10-26T10:32:23.878Z,100226.03
2022-10-26T10:34:52.529Z,100222.53
2022-10-26T10:37:30.583Z,100229.44
2022-10-26T10:39:58.578Z,100228.66
2022-10-26T10:42:30.162Z,100227.75
2022-10-26T10:44:57.957Z,100224.44
2022-10-26T10:47:28.675Z,100227.72
2022-10-26T10:50:04.491Z,100223.63
2022-10-26T10:52:34.201Z,100218.12
2022-10-26T10:55:13.612Z,100216.03
2022-10-26T10:57:43.917Z,100218.91
2022-10-26T11:00:13.092Z,100216.09
2022-10-26T11:03:09.068Z,100211.09
2022-10-26T11:05:58.828Z,100205.06
2022-10-26T11:08:30.973Z,100201.56
2022-10-26T11:11:02.623Z,100210.31
2022-10-26T11:13:34.363Z,100205.53
2022-10-26T11:16:11.369Z,100195.84
2022-10-26T11:19:04.772Z,100203.97
2022-10-26T11:21:37.844Z,100195.91
2022-10-26T11:24:23.227Z,100204.97
2022-10-26T11:26:56.792Z,100209.41
2022-10-26T11:29:24.611Z,100194.22
2022-10-26T11:32:13.790Z,100195.84
2022-10-26T11:34:46.814Z,100195.31
2022-10-26T11:37:19.429Z,100189.97
2022-10-26T11:40:02.004Z,100193.94
2022-10-26T11:42:47.272Z,100182.50
2022-10-26T11:45:20.646Z,100186.88
2022-10-26T11:48:00.657Z,100180.09
2022-10-26T11:50:34.812Z,100186.28
2022-10-26T11:53:08.686Z,100186.78
2022-10-26T11:55:36.970Z,100188.16
2022-10-26T11:58:04.730Z,100184.03
2022-10-26T12:00:33.508Z,100180.69
2022-10-26T12:03:08.334Z,100185.81
2022-10-26T12:05:38.609Z,100182.84
2022-10-26T12:08:12.436Z,100180.50
2022-10-26T12:10:42.363Z,100185.44
2022-10-26T12:13:27.479Z,100181.97
2022-10-26T12:16:07.487Z,100187.03
2022-10-26T12:18:55.101Z,100181.25
2022-10-26T12:21:31.565Z,100189.56
2022-10-26T12:24:01.865Z,100184.41
2022-10-26T12:26:29.344Z,100182.84
2022-10-26T12:29:02.660Z,100191.22
2022-10-26T12:31:36.422Z,100186.63
2022-10-26T12:34:05.469Z,100184.28
2022-10-26T12:36:55.122Z,100181.22
2022-10-26T12:39:41.623Z,100172.59
2022-10-26T12:42:11.360Z,100179.44
2022-10-26T12:44:48.350Z,100175.78
2022-10-26T12:47:28.088Z,100174.09
2022-10-26T12:50:24.552Z,100167.91
2022-10-26T12:53:01.459Z,100170.50
2022-10-26T12:55:50.124Z,100171.34
2022-10-26T12:58:29.849Z,100175.47
2022-10-26T13:01:00.372Z,100167.78
2022-10-26T13:03:34.197Z,100169.34
2022-10-26T13:06:10.853Z,100168.84
2022-10-26T13:08:43.376Z,100167.50
2022-10-26T13:11:17.569Z,100163.78
2022-10-26T13:13:45.957Z,100163.94
2022-10-26T13:16:16.459Z,100166.66
2022-10-26T13:18:45.592Z,100163.09
2022-10-26T13:21:18.301Z,100167.00
2022-10-26T13:23:54.011Z,100172.97
2022-10-26T13:26:26.994Z,100165.47
2022-10-26T13:28:59.401Z,100171.44
2022-10-26T13:31:34.956Z,100171.44
2022-10-26T13:36:54.160Z,100177.72
2022-10-26T13:39:31.886Z,100172.59
2022-10-26T13:42:00.077Z,100175.19
2022-10-26T13:44:47.717Z,100171.94
2022-10-26T13:47:22.618Z,100169.22
2022-10-26T13:49:53.085Z,100175.34
2022-10-26T13:52:30.644Z,100173.47
2022-10-26T13:55:06.070Z,100178.06
2022-10-26T13:57:43.307Z,100182.97
2022-10-26T14:00:18.001Z,100185.19
2022-10-26T14:02:45.827Z,100178.50
2022-10-26T14:05:16.980Z,100173.44
2022-10-26T14:07:54.153Z,100182.50
2022-10-26T14:10:28.838Z,100181.97
2022-10-26T14:12:56.878Z,100183.00
2022-10-26T14:15:32.956Z,100180.78
2022-10-26T14:18:02.012Z,100186.72
2022-10-26T14:20:31.702Z,100180.97
2022-10-26T14:22:59.119Z,100189.94
2022-10-26T14:25:48.046Z,100184.00
2022-10-26T14:28:28.089Z,100187.75
2022-10-26T14:31:21.022Z,100183.50
2022-10-26T14:33:48.811Z,100188.41
2022-10-26T14:36:17.134Z,100187.75
2022-10-26T14:38:50.762Z,100187.41
2022-10-26T14:41:19.521Z,100195.56
2022-10-26T14:43:47.330Z,100192.16
2022-10-26T14:46:16.463Z,100194.19
2022-10-26T14:48:52.323Z,100198.28
2022-10-26T14:51:22.435Z,100196.59
2022-10-26T14:53:55.306Z,100199.28
2022-10-26T14:56:39.134Z,100196.75
2022-10-26T14:59:27.946Z,100202.87
2022-10-26T15:01:58.121Z,100198.25
2022-10-26T15:04:36.653Z,100195.72
2022-10-26T15:07:13.060Z,100195.53
2022-10-26T15:09:50.253Z,100198.44
2022-10-26T15:12:36.517Z,100204.72
2022-10-26T15:15:11.242Z,100200.44
2022-10-26T15:17:42.097Z,100196.19
2022-10-26T15:20:17.884Z,100204.53
2022-10-26T15:23:10.358Z,100194.66
2022-10-26T15:25:39.278Z,100206.22
2022-10-26T15:28:31.613Z,100200.94
2022-10-26T15:31:04.844Z,100210.97
2022-10-26T15:33:33.697Z,100209.78
2022-10-26T15:36:08.205Z,100212.31
2022-10-26T15:38:36.537Z,100206.22
2022-10-26T15:41:06.596Z,100213.84
2022-10-26T15:43:34.616Z,100214.19
2022-10-26T15:46:02.250Z,100223.19
2022-10-26T15:48:34.282Z,100219.44
2022-10-26T15:51:01.865Z,100223.34
2022-10-26T15:53:30.507Z,100218.56
2022-10-26T15:55:59.783Z,100216.22
2022-10-26T15:58:29.662Z,100216.22
2022-10-26T16:00:57.304Z,100217.56
2022-10-26T16:03:26.646Z,100225.72
2022-10-26T16:05:59.413Z,100227.37
2022-10-26T16:08:30.297Z,100222.63
2022-10-26T16:10:57.937Z,100229.75
2022-10-26T16:13:26.712Z,100233.50
2022-10-26T16:15:54.419Z,100232.28
2022-10-26T16:18:22.002Z,100235.47
2022-10-26T16:20:49.559Z,100231.09
2022-10-26T16:23:17.442Z,100238.22
2022-10-26T16:25:46.716Z,100240.91
2022-10-26T16:28:16.634Z,100236.69
2022-10-26T16:30:44.819Z,100248.59
2022-10-26T16:33:14.232Z,100249.44
2022-10-26T16:35:42.149Z,100250.28
2022-10-26T16:38:10.027Z,100248.72
2022-10-26T16:40:37.607Z,100261.47
2022-10-26T16:43:05.209Z,100257.37
2022-10-26T16:45:33.244Z,100263.53
2022-10-26T16:48:05.682Z,100260.47
2022-10-26T16:50:36.288Z,100261.78
2022-10-26T16:53:04.406Z,100268.25
2022-10-26T16:55:32.750Z,100265.22
2022-10-26T16:58:01.666Z,100260.94
2022-10-26T17:00:29.362Z,100269.28
2022-10-26T17:02:56.785Z,100263.16
2022-10-26T17:05:24.933Z,100267.03
2022-10-26T17:07:52.822Z,100263.97
2022-10-26T17:10:21.097Z,100259.69
2022-10-26T17:12:49.248Z,100275.63
2022-10-26T17:15:19.786Z,100279.19
2022-10-26T17:17:48.249Z,100282.78
2022-10-26T17:20:17.107Z,100290.38
2022-10-26T17:22:44.745Z,100285.50
2022-10-26T17:25:12.326Z,100287.00
2022-10-26T17:27:44.805Z,100284.28
2022-10-26T17:30:15.339Z,100290.38
2022-10-26T17:32:43.221Z,100297.34
2022-10-26T17:35:10.876Z,100295.13
2022-10-26T17:37:40.913Z,100295.28
2022-10-26T17:40:09.469Z,100301.34
2022-10-26T17:42:37.324Z,100300.50
2022-10-26T17:45:05.254Z,100301.28
2022-10-26T17:47:33.100Z,100314.97
2022-10-26T17:50:00.682Z,100318.03
2022-10-26T17:52:28.281Z,100323.94
2022-10-26T17:54:58.091Z,100324.66
2022-10-26T17:57:28.338Z,100325.81
2022-10-26T17:59:56.643Z,100326.53
2022-10-26T18:02:24.386Z,100326.97
2022-10-26T18:04:52.396Z,100319.00
2022-10-26T18:07:20.160Z,100323.34
2022-10-26T18:09:47.834Z,100325.22
2022-10-26T18:12:15.702Z,100331.66
2022-10-26T18:14:43.379Z,100333.53
2022-10-26T18:17:12.030Z,100317.78
2022-10-26T18:19:39.961Z,100316.31
2022-10-26T18:22:08.271Z,100323.25
2022-10-26T18:24:37.409Z,100326.31
2022-10-26T18:27:05.358Z,100317.34
2022-10-26T18:29:36.142Z,100325.31
2022-10-26T18:32:06.655Z,100318.87
2022-10-26T18:34:34.660Z,100318.03
2022-10-26T18:37:02.330Z,100326.88
2022-10-26T18:39:30.369Z,100330.44
2022-10-26T18:41:58.583Z,100333.31
2022-10-26T18:44:26.203Z,100334.31
2022-10-26T18:46:54.163Z,100336.72
2022-10-26T18:49:22.508Z,100334.56
2022-10-26T18:51:51.002Z,100337.41
2022-10-26T18:54:18.923Z,100331.31
2022-10-26T18:56:46.593Z,100337.03
2022-10-26T18:59:14.232Z,100341.75
2022-10-26T19:01:42.696Z,100346.16
2022-10-26T19:04:11.166Z,100349.88
2022-10-26T19:06:41.417Z,100356.44
2022-10-26T19:09:10.325Z,100357.88
2022-10-26T19:11:38.344Z,100364.78
2022-10-26T19:14:07.624Z,100374.91
2022-10-26T19:16:51.369Z,100380.81
2022-10-26T19:19:20.071Z,100372.59
2022-10-26T19:21:49.381Z,100382.84
2022-10-26T19:24:22.198Z,100383.00
2022-10-26T19:26:51.251Z,100392.13
2022-10-26T19:29:19.656Z,100388.72
2022-10-26T19:31:50.582Z,100395.59
2022-10-26T19:34:19.724Z,100401.84
2022-10-26T19:36:49.234Z,100406.75
2022-10-26T19:39:18.458Z,100409.19
2022-10-26T19:41:46.922Z,100409.22
2022-10-26T19:44:16.073Z,100417.03
2022-10-26T19:46:46.607Z,100412.00
2022-10-26T19:49:17.582Z,100415.47
2022-10-26T19:51:47.941Z,100419.59
2022-10-26T19:54:15.976Z,100425.72
2022-10-26T19:56:43.571Z,100432.03
2022-10-26T19:59:11.419Z,100437.91
2022-10-26T20:01:39.511Z,100433.19
2022-10-26T20:04:07.451Z,100446.72
2022-10-26T20:06:35.096Z,100444.56
2022-10-26T20:09:04.048Z,100451.72
2022-10-26T20:11:36.637Z,100451.03
2022-10-26T20:14:06.426Z,100448.31
2022-10-26T20:16:34.407Z,100445.59
2022-10-26T20:19:02.147Z,100446.47
2022-10-26T20:21:29.920Z,100444.03
2022-10-26T20:23:57.834Z,100446.91
2022-10-26T20:26:28.317Z,100451.16
2022-10-26T20:28:56.330Z,100457.44
2022-10-26T20:31:24.374Z,100460.00
2022-10-26T20:33:52.837Z,100468.00
2022-10-26T20:36:20.921Z,100467.94
2022-10-26T20:38:50.125Z,100464.84
2022-10-26T20:41:19.199Z,100459.81
2022-10-26T20:43:48.068Z,100461.41
2022-10-26T20:46:25.267Z,100466.81
2022-10-26T20:48:54.371Z,100460.00
2022-10-26T20:51:29.396Z,100461.41
2022-10-26T20:54:18.697Z,100469.53
2022-10-26T20:56:48.138Z,100463.25
2022-10-26T20:59:38.078Z,100455.59
2022-10-26T21:02:09.657Z,100470.38
2022-10-26T21:04:37.336Z,100474.53
2022-10-26T21:07:05.344Z,100477.09
2022-10-26T21:09:36.541Z,100478.94
2022-10-26T21:12:04.785Z,100479.66
2022-10-26T21:14:36.635Z,100481.19
2022-10-26T21:17:04.382Z,100480.91
2022-10-26T21:19:31.858Z,100475.66
2022-10-26T21:21:59.362Z,100467.66
2022-10-26T21:24:27.066Z,100470.38
2022-10-26T21:26:55.181Z,100465.84
2022-10-26T21:29:22.999Z,100463.69
2022-10-26T21:31:51.984Z,100469.09
2022-10-26T21:34:20.100Z,100472.62
2022-10-26T21:36:47.591Z,100470.19
2022-10-26T21:39:15.343Z,100464.94
2022-10-26T21:41:43.937Z,100468.38
2022-10-26T21:44:24.721Z,100473.78
2022-10-26T21:46:59.779Z,100468.97
2022-10-26T21:49:27.666Z,100466.53
2022-10-26T21:51:55.101Z,100464.56
2022-10-26T21:54:22.820Z,100470.25
2022-10-26T21:56:50.215Z,100472.50
2022-10-26T21:59:17.653Z,100471.25
2022-10-26T22:01:45.494Z,100465.97
2022-10-26T22:04:13.307Z,100467.81
2022-10-26T22:06:41.221Z,100465.09
2022-10-26T22:09:08.663Z,100459.41
2022-10-26T22:11:36.340Z,100462.12
2022-10-26T22:14:03.778Z,100464.09
2022-10-26T22:16:32.279Z,100476.50
2022-10-26T22:19:04.416Z,100467.53
2022-10-26T22:21:35.594Z,100466.81
2022-10-26T22:24:03.920Z,100472.09
2022-10-26T22:26:33.737Z,100474.91
2022-10-26T22:29:01.206Z,100470.47
2022-10-26T22:34:07.620Z,100474.47
2022-10-26T22:36:36.129Z,100471.16
2022-10-26T22:39:04.064Z,100478.41
2022-10-26T22:41:31.763Z,100481.25
2022-10-26T22:43:59.680Z,100480.97
2022-10-26T22:46:28.220Z,100485.81
2022-10-26T22:49:00.772Z,100490.69
2022-10-26T22:51:31.105Z,100495.66
2022-10-26T22:54:00.114Z,100488.59
2022-10-26T22:56:28.368Z,100494.87
2022-10-26T22:58:57.334Z,100493.72
2022-10-26T23:01:31.268Z,100503.56
2022-10-26T23:04:00.175Z,100500.69
2022-10-26T23:06:30.123Z,100494.13
2022-10-26T23:08:57.926Z,100500.66
2022-10-26T23:11:27.819Z,100496.16
2022-10-26T23:13:59.961Z,100500.12
2022-10-26T23:16:28.751Z,100502.69
2022-10-26T23:18:56.326Z,100507.09
2022-10-26T23:23:57.999Z,100517.94
2022-10-26T23:26:25.662Z,100507.53
2022-10-26T23:28:53.066Z,100509.97
2022-10-26T23:31:22.595Z,100508.22
2022-10-26T23:33:50.577Z,100502.81
2022-10-26T23:36:18.064Z,100508.37
2022-10-26T23:38:46.238Z,100513.75
2022-10-26T23:41:13.935Z,100516.19
2022-10-26T23:43:41.683Z,100521.16
2022-10-26T23:46:09.610Z,100519.88
2022-10-26T23:48:37.095Z,100516.88
2022-10-26T23:51:04.537Z,100510.78
2022-10-26T23:53:32.615Z,100507.22
2022-10-26T23:56:00.021Z,100516.00
2022-10-26T23:58:27.452Z,100514.41
